sensor_id;sensor_type;location;lat;lon;timestamp;P1;durP1;ratioP1;P2;durP2;ratioP2
6953;SDS011;3516;47.980;8.808;2023-05-07T05:03:37;1.42;;;1.42;;
6953;SDS011;3516;47.980;8.808;2023-05-07T05:06:04;1.00;;;1.00;;
6953;SDS011;3516;47.980;8.808;2023-05-07T05:08:31;0.80;;;0.80;;
6953;SDS011;3516;47.980;8.808;2023-05-07T05:10:58;1.08;;;1.00;;
6953;SDS011;3516;47.980;8.808;2023-05-07T05:13:26;0.88;;;0.88;;
6953;SDS011;3516;47.980;8.808;2023-05-07T05:15:53;0.88;;;0.88;;
6953;SDS011;3516;47.980;8.808;2023-05-07T05:18:19;0.80;;;0.80;;
6953;SDS011;3516;47.980;8.808;2023-05-07T05:20:47;0.90;;;0.90;;
6953;SDS011;3516;47.980;8.808;2023-05-07T05:23:14;0.80;;;0.80;;
6953;SDS011;3516;47.980;8.808;2023-05-07T05:25:41;0.80;;;0.80;;
6953;SDS011;3516;47.980;8.808;2023-05-07T05:28:08;1.40;;;0.80;;
6953;SDS011;3516;47.980;8.808;2023-05-07T05:30:34;0.65;;;0.65;;
6953;SDS011;3516;47.980;8.808;2023-05-07T05:33:01;0.70;;;0.70;;
6953;SDS011;3516;47.980;8.808;2023-05-07T05:35:29;0.68;;;0.68;;
6953;SDS011;3516;47.980;8.808;2023-05-07T05:37:57;0.70;;;0.70;;
6953;SDS011;3516;47.980;8.808;2023-05-07T05:40:24;0.73;;;0.73;;
6953;SDS011;3516;47.980;8.808;2023-05-07T05:42:50;0.70;;;0.70;;
6953;SDS011;3516;47.980;8.808;2023-05-07T05:45:17;0.60;;;0.60;;
6953;SDS011;3516;47.980;8.808;2023-05-07T05:47:44;0.70;;;0.70;;
6953;SDS011;3516;47.980;8.808;2023-05-07T05:50:10;0.70;;;0.70;;
6953;SDS011;3516;47.980;8.808;2023-05-07T05:52:37;0.80;;;0.80;;
6953;SDS011;3516;47.980;8.808;2023-05-07T05:55:07;0.90;;;0.70;;
6953;SDS011;3516;47.980;8.808;2023-05-07T05:57:35;0.57;;;0.57;;
6953;SDS011;3516;47.980;8.808;2023-05-07T06:00:02;0.75;;;0.75;;
6953;SDS011;3516;47.980;8.808;2023-05-07T06:02:30;0.77;;;0.77;;
6953;SDS011;3516;47.980;8.808;2023-05-07T06:04:56;0.70;;;0.70;;
6953;SDS011;3516;47.980;8.808;2023-05-07T06:07:23;0.50;;;0.50;;
6953;SDS011;3516;47.980;8.808;2023-05-07T06:09:50;1.23;;;0.73;;
6953;SDS011;3516;47.980;8.808;2023-05-07T06:12:18;0.90;;;0.90;;
6953;SDS011;3516;47.980;8.808;2023-05-07T06:14:44;0.95;;;0.80;;
6953;SDS011;3516;47.980;8.808;2023-05-07T06:17:11;1.20;;;1.15;;
6953;SDS011;3516;47.980;8.808;2023-05-07T06:19:38;1.10;;;1.10;;
6953;SDS011;3516;47.980;8.808;2023-05-07T06:22:05;1.65;;;1.23;;
6953;SDS011;3516;47.980;8.808;2023-05-07T06:24:31;0.93;;;0.93;;
6953;SDS011;3516;47.980;8.808;2023-05-07T06:26:58;1.00;;;1.00;;
6953;SDS011;3516;47.980;8.808;2023-05-07T06:29:26;0.90;;;0.90;;
6953;SDS011;3516;47.980;8.808;2023-05-07T06:31:55;1.20;;;1.20;;
6953;SDS011;3516;47.980;8.808;2023-05-07T06:34:22;1.02;;;1.02;;
6953;SDS011;3516;47.980;8.808;2023-05-07T06:36:48;1.02;;;1.02;;
6953;SDS011;3516;47.980;8.808;2023-05-07T06:39:15;0.93;;;0.93;;
6953;SDS011;3516;47.980;8.808;2023-05-07T06:41:42;0.70;;;0.70;;
6953;SDS011;3516;47.980;8.808;2023-05-07T06:44:08;0.80;;;0.80;;
6953;SDS011;3516;47.980;8.808;2023-05-07T06:46:36;1.00;;;1.00;;
6953;SDS011;3516;47.980;8.808;2023-05-07T06:49:03;0.60;;;0.60;;
6953;SDS011;3516;47.980;8.808;2023-05-07T06:51:30;0.63;;;0.63;;
6953;SDS011;3516;47.980;8.808;2023-05-07T06:53:56;0.70;;;0.70;;
6953;SDS011;3516;47.980;8.808;2023-05-07T06:56:23;1.52;;;1.20;;
6953;SDS011;3516;47.980;8.808;2023-05-07T06:58:50;0.85;;;0.75;;
6953;SDS011;3516;47.980;8.808;2023-05-07T07:01:16;1.00;;;1.00;;
6953;SDS011;3516;47.980;8.808;2023-05-07T07:03:44;0.90;;;0.90;;
6953;SDS011;3516;47.980;8.808;2023-05-07T07:06:11;1.00;;;1.00;;
6953;SDS011;3516;47.980;8.808;2023-05-07T07:08:38;0.82;;;0.82;;
6953;SDS011;3516;47.980;8.808;2023-05-07T07:11:05;0.77;;;0.77;;
6953;SDS011;3516;47.980;8.808;2023-05-07T07:13:32;0.75;;;0.75;;
6953;SDS011;3516;47.980;8.808;2023-05-07T07:15:59;0.90;;;0.90;;
6953;SDS011;3516;47.980;8.808;2023-05-07T07:18:26;0.68;;;0.68;;
6953;SDS011;3516;47.980;8.808;2023-05-07T07:20:54;1.48;;;0.60;;
6953;SDS011;3516;47.980;8.808;2023-05-07T07:23:21;0.82;;;0.70;;
6953;SDS011;3516;47.980;8.808;2023-05-07T07:25:48;1.17;;;1.00;;
6953;SDS011;3516;47.980;8.808;2023-05-07T07:28:14;0.88;;;0.88;;
6953;SDS011;3516;47.980;8.808;2023-05-07T07:30:41;0.80;;;0.80;;
6953;SDS011;3516;47.980;8.808;2023-05-07T07:33:08;1.38;;;1.00;;
6953;SDS011;3516;47.980;8.808;2023-05-07T07:35:35;0.57;;;0.57;;
6953;SDS011;3516;47.980;8.808;2023-05-07T07:38:03;0.70;;;0.70;;
6953;SDS011;3516;47.980;8.808;2023-05-07T07:40:29;1.05;;;1.05;;
6953;SDS011;3516;47.980;8.808;2023-05-07T07:42:56;1.23;;;1.23;;
6953;SDS011;3516;47.980;8.808;2023-05-07T07:45:23;2.35;;;0.82;;
6953;SDS011;3516;47.980;8.808;2023-05-07T07:47:51;1.33;;;1.23;;
6953;SDS011;3516;47.980;8.808;2023-05-07T07:50:18;0.95;;;0.95;;
6953;SDS011;3516;47.980;8.808;2023-05-07T07:52:44;0.98;;;0.90;;
6953;SDS011;3516;47.980;8.808;2023-05-07T07:55:13;2.40;;;1.38;;
6953;SDS011;3516;47.980;8.808;2023-05-07T07:57:43;3.40;;;1.50;;
6953;SDS011;3516;47.980;8.808;2023-05-07T08:00:10;1.50;;;1.08;;
6953;SDS011;3516;47.980;8.808;2023-05-07T08:02:37;0.90;;;0.90;;
6953;SDS011;3516;47.980;8.808;2023-05-07T08:05:04;1.27;;;1.02;;
6953;SDS011;3516;47.980;8.808;2023-05-07T08:07:31;1.48;;;1.13;;
6953;SDS011;3516;47.980;8.808;2023-05-07T08:09:58;1.23;;;1.23;;
6953;SDS011;3516;47.980;8.808;2023-05-07T08:12:26;1.00;;;1.00;;
6953;SDS011;3516;47.980;8.808;2023-05-07T08:14:52;1.00;;;1.00;;
6953;SDS011;3516;47.980;8.808;2023-05-07T08:17:19;1.45;;;1.00;;
6953;SDS011;3516;47.980;8.808;2023-05-07T08:19:47;2.25;;;1.30;;
6953;SDS011;3516;47.980;8.808;2023-05-07T08:22:13;1.73;;;1.17;;
6953;SDS011;3516;47.980;8.808;2023-05-07T08:24:40;4.00;;;1.27;;
6953;SDS011;3516;47.980;8.808;2023-05-07T08:27:07;1.58;;;1.40;;
6953;SDS011;3516;47.980;8.808;2023-05-07T08:29:35;1.30;;;1.30;;
6953;SDS011;3516;47.980;8.808;2023-05-07T08:32:02;1.60;;;1.50;;
6953;SDS011;3516;47.980;8.808;2023-05-07T08:34:28;1.45;;;1.20;;
6953;SDS011;3516;47.980;8.808;2023-05-07T08:36:55;1.63;;;1.30;;
6953;SDS011;3516;47.980;8.808;2023-05-07T08:39:22;1.15;;;1.15;;
6953;SDS011;3516;47.980;8.808;2023-05-07T08:41:48;1.45;;;0.90;;
6953;SDS011;3516;47.980;8.808;2023-05-07T08:44:19;0.90;;;0.90;;
6953;SDS011;3516;47.980;8.808;2023-05-07T08:46:50;0.93;;;0.93;;
6953;SDS011;3516;47.980;8.808;2023-05-07T08:49:19;0.85;;;0.77;;
6953;SDS011;3516;47.980;8.808;2023-05-07T08:51:46;0.70;;;0.70;;
6953;SDS011;3516;47.980;8.808;2023-05-07T08:54:15;1.30;;;0.85;;
6953;SDS011;3516;47.980;8.808;2023-05-07T08:56:42;0.90;;;0.90;;
6953;SDS011;3516;47.980;8.808;2023-05-07T08:59:09;1.13;;;1.02;;
6953;SDS011;3516;47.980;8.808;2023-05-07T09:01:36;0.82;;;0.80;;
6953;SDS011;3516;47.980;8.808;2023-05-07T09:04:05;0.77;;;0.77;;
6953;SDS011;3516;47.980;8.808;2023-05-07T09:06:32;0.80;;;0.80;;
6953;SDS011;3516;47.980;8.808;2023-05-07T09:08:59;1.48;;;0.93;;
6953;SDS011;3516;47.980;8.808;2023-05-07T09:11:30;0.82;;;0.80;;
6953;SDS011;3516;47.980;8.808;2023-05-07T09:13:57;1.05;;;1.05;;
6953;SDS011;3516;47.980;8.808;2023-05-07T09:16:26;1.20;;;0.85;;
6953;SDS011;3516;47.980;8.808;2023-05-07T09:18:54;2.28;;;0.90;;
6953;SDS011;3516;47.980;8.808;2023-05-07T09:21:22;0.98;;;0.70;;
6953;SDS011;3516;47.980;8.808;2023-05-07T09:23:50;0.82;;;0.82;;
6953;SDS011;3516;47.980;8.808;2023-05-07T09:26:19;0.77;;;0.73;;
6953;SDS011;3516;47.980;8.808;2023-05-07T09:28:47;0.65;;;0.65;;
6953;SDS011;3516;47.980;8.808;2023-05-07T09:31:22;0.80;;;0.80;;
6953;SDS011;3516;47.980;8.808;2023-05-07T09:33:50;0.80;;;0.80;;
6953;SDS011;3516;47.980;8.808;2023-05-07T09:36:18;1.10;;;1.00;;
6953;SDS011;3516;47.980;8.808;2023-05-07T09:38:45;0.90;;;0.90;;
6953;SDS011;3516;47.980;8.808;2023-05-07T09:41:12;0.80;;;0.80;;
6953;SDS011;3516;47.980;8.808;2023-05-07T09:43:39;1.00;;;1.00;;
6953;SDS011;3516;47.980;8.808;2023-05-07T09:46:07;1.13;;;1.00;;
6953;SDS011;3516;47.980;8.808;2023-05-07T09:48:38;1.33;;;1.20;;
6953;SDS011;3516;47.980;8.808;2023-05-07T09:51:11;1.35;;;1.35;;
6953;SDS011;3516;47.980;8.808;2023-05-07T09:53:47;2.00;;;1.90;;
6953;SDS011;3516;47.980;8.808;2023-05-07T09:56:16;1.58;;;1.55;;
6953;SDS011;3516;47.980;8.808;2023-05-07T09:58:45;1.40;;;1.33;;
6953;SDS011;3516;47.980;8.808;2023-05-07T10:01:13;2.30;;;1.02;;
6953;SDS011;3516;47.980;8.808;2023-05-07T10:03:41;1.30;;;1.30;;
6953;SDS011;3516;47.980;8.808;2023-05-07T10:06:09;1.10;;;1.10;;
6953;SDS011;3516;47.980;8.808;2023-05-07T10:08:36;1.42;;;1.27;;
6953;SDS011;3516;47.980;8.808;2023-05-07T10:11:03;2.35;;;1.40;;
6953;SDS011;3516;47.980;8.808;2023-05-07T10:13:31;1.02;;;1.02;;
6953;SDS011;3516;47.980;8.808;2023-05-07T10:15:59;1.33;;;1.23;;
6953;SDS011;3516;47.980;8.808;2023-05-07T10:18:27;1.75;;;1.05;;
6953;SDS011;3516;47.980;8.808;2023-05-07T10:20:59;0.95;;;0.90;;
6953;SDS011;3516;47.980;8.808;2023-05-07T10:23:30;1.58;;;1.50;;
6953;SDS011;3516;47.980;8.808;2023-05-07T10:25:58;1.13;;;1.13;;
6953;SDS011;3516;47.980;8.808;2023-05-07T10:28:27;1.17;;;1.08;;
6953;SDS011;3516;47.980;8.808;2023-05-07T10:30:58;1.23;;;1.15;;
6953;SDS011;3516;47.980;8.808;2023-05-07T10:33:33;1.42;;;1.30;;
6953;SDS011;3516;47.980;8.808;2023-05-07T10:36:03;1.20;;;1.10;;
6953;SDS011;3516;47.980;8.808;2023-05-07T10:38:33;1.40;;;1.30;;
6953;SDS011;3516;47.980;8.808;2023-05-07T10:41:00;1.88;;;1.75;;
6953;SDS011;3516;47.980;8.808;2023-05-07T10:43:37;25.27;;;7.03;;
6953;SDS011;3516;47.980;8.808;2023-05-07T10:46:09;18.13;;;7.35;;
6953;SDS011;3516;47.980;8.808;2023-05-07T10:51:41;5.82;;;3.65;;
6953;SDS011;3516;47.980;8.808;2023-05-07T10:54:20;8.18;;;3.65;;
6953;SDS011;3516;47.980;8.808;2023-05-07T10:56:48;19.23;;;7.28;;
6953;SDS011;3516;47.980;8.808;2023-05-07T10:59:34;14.85;;;7.22;;
6953;SDS011;3516;47.980;8.808;2023-05-07T11:02:08;10.30;;;6.25;;
6953;SDS011;3516;47.980;8.808;2023-05-07T11:04:36;8.40;;;4.57;;
6953;SDS011;3516;47.980;8.808;2023-05-07T11:09:57;3.50;;;2.65;;
6953;SDS011;3516;47.980;8.808;2023-05-07T11:12:51;4.85;;;2.60;;
6953;SDS011;3516;47.980;8.808;2023-05-07T11:18:10;2.17;;;2.08;;
6953;SDS011;3516;47.980;8.808;2023-05-07T11:20:44;1.73;;;1.63;;
6953;SDS011;3516;47.980;8.808;2023-05-07T11:26:14;1.85;;;1.75;;
6953;SDS011;3516;47.980;8.808;2023-05-07T11:28:42;2.28;;;2.08;;
6953;SDS011;3516;47.980;8.808;2023-05-07T11:31:10;2.67;;;2.08;;
6953;SDS011;3516;47.980;8.808;2023-05-07T11:33:37;2.17;;;1.98;;
6953;SDS011;3516;47.980;8.808;2023-05-07T11:36:04;1.88;;;1.77;;
6953;SDS011;3516;47.980;8.808;2023-05-07T11:38:34;1.95;;;1.85;;
6953;SDS011;3516;47.980;8.808;2023-05-07T11:41:02;1.73;;;1.63;;
6953;SDS011;3516;47.980;8.808;2023-05-07T11:43:31;1.92;;;1.83;;
6953;SDS011;3516;47.980;8.808;2023-05-07T11:46:07;1.90;;;1.80;;
6953;SDS011;3516;47.980;8.808;2023-05-07T11:48:35;1.48;;;1.40;;
6953;SDS011;3516;47.980;8.808;2023-05-07T11:51:02;1.70;;;1.30;;
6953;SDS011;3516;47.980;8.808;2023-05-07T11:53:35;2.05;;;1.95;;
6953;SDS011;3516;47.980;8.808;2023-05-07T11:56:05;3.72;;;1.83;;
6953;SDS011;3516;47.980;8.808;2023-05-07T11:58:34;1.30;;;1.30;;
6953;SDS011;3516;47.980;8.808;2023-05-07T12:01:02;1.30;;;1.20;;
6953;SDS011;3516;47.980;8.808;2023-05-07T12:03:29;1.10;;;1.05;;
6953;SDS011;3516;47.980;8.808;2023-05-07T12:05:55;1.10;;;1.10;;
6953;SDS011;3516;47.980;8.808;2023-05-07T12:08:22;1.17;;;1.15;;
6953;SDS011;3516;47.980;8.808;2023-05-07T12:10:49;1.73;;;1.63;;
6953;SDS011;3516;47.980;8.808;2023-05-07T12:13:17;1.27;;;1.13;;
6953;SDS011;3516;47.980;8.808;2023-05-07T12:15:45;1.13;;;1.13;;
6953;SDS011;3516;47.980;8.808;2023-05-07T12:18:12;1.20;;;1.20;;
6953;SDS011;3516;47.980;8.808;2023-05-07T12:20:40;1.55;;;1.23;;
6953;SDS011;3516;47.980;8.808;2023-05-07T12:23:07;1.27;;;1.20;;
6953;SDS011;3516;47.980;8.808;2023-05-07T12:25:34;1.88;;;1.30;;
6953;SDS011;3516;47.980;8.808;2023-05-07T12:28:01;1.23;;;1.10;;
6953;SDS011;3516;47.980;8.808;2023-05-07T12:30:29;1.95;;;1.30;;
6953;SDS011;3516;47.980;8.808;2023-05-07T12:32:58;1.85;;;1.60;;
6953;SDS011;3516;47.980;8.808;2023-05-07T12:35:27;1.55;;;1.50;;
6953;SDS011;3516;47.980;8.808;2023-05-07T12:37:54;1.85;;;1.23;;
6953;SDS011;3516;47.980;8.808;2023-05-07T12:40:21;5.22;;;1.83;;
6953;SDS011;3516;47.980;8.808;2023-05-07T12:42:48;2.08;;;1.88;;
6953;SDS011;3516;47.980;8.808;2023-05-07T12:45:20;5.47;;;2.20;;
6953;SDS011;3516;47.980;8.808;2023-05-07T12:47:47;2.67;;;1.98;;
6953;SDS011;3516;47.980;8.808;2023-05-07T12:50:16;2.65;;;1.40;;
6953;SDS011;3516;47.980;8.808;2023-05-07T12:52:43;1.95;;;1.80;;
6953;SDS011;3516;47.980;8.808;2023-05-07T12:55:12;1.60;;;1.50;;
6953;SDS011;3516;47.980;8.808;2023-05-07T12:57:43;4.57;;;2.33;;
6953;SDS011;3516;47.980;8.808;2023-05-07T13:00:12;3.10;;;2.05;;
6953;SDS011;3516;47.980;8.808;2023-05-07T13:02:40;3.17;;;2.00;;
6953;SDS011;3516;47.980;8.808;2023-05-07T13:05:09;4.32;;;1.63;;
6953;SDS011;3516;47.980;8.808;2023-05-07T13:07:38;4.13;;;2.35;;
6953;SDS011;3516;47.980;8.808;2023-05-07T13:10:06;3.38;;;1.95;;
6953;SDS011;3516;47.980;8.808;2023-05-07T13:12:33;2.63;;;1.80;;
6953;SDS011;3516;47.980;8.808;2023-05-07T13:15:00;1.38;;;1.27;;
6953;SDS011;3516;47.980;8.808;2023-05-07T13:17:27;2.60;;;1.77;;
6953;SDS011;3516;47.980;8.808;2023-05-07T13:19:55;2.58;;;1.73;;
6953;SDS011;3516;47.980;8.808;2023-05-07T13:22:22;3.05;;;1.77;;
6953;SDS011;3516;47.980;8.808;2023-05-07T13:24:50;2.25;;;1.40;;
6953;SDS011;3516;47.980;8.808;2023-05-07T13:27:20;1.20;;;1.15;;
6953;SDS011;3516;47.980;8.808;2023-05-07T13:29:49;4.18;;;1.40;;
6953;SDS011;3516;47.980;8.808;2023-05-07T13:32:16;3.50;;;1.10;;
6953;SDS011;3516;47.980;8.808;2023-05-07T13:34:42;1.38;;;1.27;;
6953;SDS011;3516;47.980;8.808;2023-05-07T13:37:09;1.83;;;1.20;;
6953;SDS011;3516;47.980;8.808;2023-05-07T13:39:36;4.10;;;1.90;;
6953;SDS011;3516;47.980;8.808;2023-05-07T13:42:04;3.50;;;1.38;;
6953;SDS011;3516;47.980;8.808;2023-05-07T13:44:32;1.52;;;1.20;;
6953;SDS011;3516;47.980;8.808;2023-05-07T13:46:59;1.40;;;1.40;;
6953;SDS011;3516;47.980;8.808;2023-05-07T13:49:27;1.20;;;1.10;;
6953;SDS011;3516;47.980;8.808;2023-05-07T13:51:56;8.80;;;1.50;;
6953;SDS011;3516;47.980;8.808;2023-05-07T13:54:22;4.75;;;1.33;;
6953;SDS011;3516;47.980;8.808;2023-05-07T13:56:50;3.85;;;1.23;;
6953;SDS011;3516;47.980;8.808;2023-05-07T13:59:20;1.13;;;1.10;;
6953;SDS011;3516;47.980;8.808;2023-05-07T14:01:47;1.17;;;1.17;;
6953;SDS011;3516;47.980;8.808;2023-05-07T14:04:15;1.00;;;1.00;;
6953;SDS011;3516;47.980;8.808;2023-05-07T14:06:42;0.98;;;0.98;;
6953;SDS011;3516;47.980;8.808;2023-05-07T14:09:08;1.17;;;1.17;;
6953;SDS011;3516;47.980;8.808;2023-05-07T14:11:38;1.20;;;1.13;;
6953;SDS011;3516;47.980;8.808;2023-05-07T14:14:05;1.10;;;1.10;;
6953;SDS011;3516;47.980;8.808;2023-05-07T14:16:36;1.00;;;1.00;;
6953;SDS011;3516;47.980;8.808;2023-05-07T14:19:03;0.93;;;0.93;;
6953;SDS011;3516;47.980;8.808;2023-05-07T14:21:31;1.33;;;0.90;;
6953;SDS011;3516;47.980;8.808;2023-05-07T14:23:57;1.00;;;1.00;;
6953;SDS011;3516;47.980;8.808;2023-05-07T14:26:25;1.13;;;1.13;;
6953;SDS011;3516;47.980;8.808;2023-05-07T14:28:53;1.50;;;1.35;;
6953;SDS011;3516;47.980;8.808;2023-05-07T14:31:23;1.38;;;1.10;;
6953;SDS011;3516;47.980;8.808;2023-05-07T14:33:52;1.27;;;1.20;;
6953;SDS011;3516;47.980;8.808;2023-05-07T14:36:19;1.35;;;1.15;;
6953;SDS011;3516;47.980;8.808;2023-05-07T14:38:47;1.48;;;1.30;;
6953;SDS011;3516;47.980;8.808;2023-05-07T14:41:15;1.20;;;1.10;;
6953;SDS011;3516;47.980;8.808;2023-05-07T14:43:42;1.00;;;1.00;;
6953;SDS011;3516;47.980;8.808;2023-05-07T14:46:14;1.02;;;1.00;;
6953;SDS011;3516;47.980;8.808;2023-05-07T14:48:43;1.23;;;1.10;;
6953;SDS011;3516;47.980;8.808;2023-05-07T14:51:12;2.42;;;1.35;;
6953;SDS011;3516;47.980;8.808;2023-05-07T14:53:40;1.50;;;1.40;;
6953;SDS011;3516;47.980;8.808;2023-05-07T14:56:07;1.20;;;1.20;;
6953;SDS011;3516;47.980;8.808;2023-05-07T14:58:35;1.40;;;1.30;;
6953;SDS011;3516;47.980;8.808;2023-05-07T15:01:03;1.60;;;1.50;;
6953;SDS011;3516;47.980;8.808;2023-05-07T15:03:30;3.67;;;1.63;;
6953;SDS011;3516;47.980;8.808;2023-05-07T15:05:57;3.28;;;1.70;;
6953;SDS011;3516;47.980;8.808;2023-05-07T15:08:26;1.70;;;1.58;;
6953;SDS011;3516;47.980;8.808;2023-05-07T15:10:53;1.30;;;1.20;;
6953;SDS011;3516;47.980;8.808;2023-05-07T15:13:20;1.77;;;1.23;;
6953;SDS011;3516;47.980;8.808;2023-05-07T15:15:48;2.70;;;1.58;;
6953;SDS011;3516;47.980;8.808;2023-05-07T15:18:15;3.17;;;1.33;;
6953;SDS011;3516;47.980;8.808;2023-05-07T15:20:42;12.40;;;1.45;;
6953;SDS011;3516;47.980;8.808;2023-05-07T15:23:10;1.08;;;1.05;;
6953;SDS011;3516;47.980;8.808;2023-05-07T15:25:40;5.15;;;0.95;;
6953;SDS011;3516;47.980;8.808;2023-05-07T15:28:07;1.77;;;1.10;;
6953;SDS011;3516;47.980;8.808;2023-05-07T15:30:35;1.13;;;1.13;;
6953;SDS011;3516;47.980;8.808;2023-05-07T15:33:01;1.10;;;1.10;;
6953;SDS011;3516;47.980;8.808;2023-05-07T15:35:28;1.10;;;1.10;;
6953;SDS011;3516;47.980;8.808;2023-05-07T15:37:55;1.65;;;1.00;;
6953;SDS011;3516;47.980;8.808;2023-05-07T15:40:22;1.63;;;0.98;;
6953;SDS011;3516;47.980;8.808;2023-05-07T15:42:50;1.50;;;1.40;;
6953;SDS011;3516;47.980;8.808;2023-05-07T15:45:21;1.42;;;1.20;;
6953;SDS011;3516;47.980;8.808;2023-05-07T15:47:48;1.20;;;1.10;;
6953;SDS011;3516;47.980;8.808;2023-05-07T15:50:15;1.20;;;1.20;;
6953;SDS011;3516;47.980;8.808;2023-05-07T15:52:42;1.27;;;1.27;;
6953;SDS011;3516;47.980;8.808;2023-05-07T15:55:11;0.90;;;0.90;;
6953;SDS011;3516;47.980;8.808;2023-05-07T15:57:37;1.45;;;1.35;;
6953;SDS011;3516;47.980;8.808;2023-05-07T16:00:07;1.13;;;1.13;;
6953;SDS011;3516;47.980;8.808;2023-05-07T16:02:36;1.08;;;1.00;;
6953;SDS011;3516;47.980;8.808;2023-05-07T16:05:04;1.05;;;1.05;;
6953;SDS011;3516;47.980;8.808;2023-05-07T16:07:33;1.75;;;1.00;;
6953;SDS011;3516;47.980;8.808;2023-05-07T16:10:01;1.30;;;1.23;;
6953;SDS011;3516;47.980;8.808;2023-05-07T16:12:28;1.00;;;1.00;;
6953;SDS011;3516;47.980;8.808;2023-05-07T16:14:55;1.17;;;1.17;;
6953;SDS011;3516;47.980;8.808;2023-05-07T16:17:23;1.23;;;1.10;;
6953;SDS011;3516;47.980;8.808;2023-05-07T16:19:50;1.15;;;1.02;;
6953;SDS011;3516;47.980;8.808;2023-05-07T16:22:17;1.10;;;1.10;;
6953;SDS011;3516;47.980;8.808;2023-05-07T16:24:44;1.17;;;1.10;;
6953;SDS011;3516;47.980;8.808;2023-05-07T16:27:11;1.15;;;1.15;;
6953;SDS011;3516;47.980;8.808;2023-05-07T16:29:37;1.40;;;1.30;;
6953;SDS011;3516;47.980;8.808;2023-05-07T16:32:05;1.42;;;1.33;;
6953;SDS011;3516;47.980;8.808;2023-05-07T16:34:33;1.00;;;0.90;;
6953;SDS011;3516;47.980;8.808;2023-05-07T16:37:01;1.38;;;1.10;;
6953;SDS011;3516;47.980;8.808;2023-05-07T16:39:28;0.85;;;0.85;;
6953;SDS011;3516;47.980;8.808;2023-05-07T16:41:56;1.10;;;1.00;;
6953;SDS011;3516;47.980;8.808;2023-05-07T16:44:24;1.90;;;0.75;;
6953;SDS011;3516;47.980;8.808;2023-05-07T16:46:51;1.23;;;1.13;;
6953;SDS011;3516;47.980;8.808;2023-05-07T16:49:18;1.13;;;1.10;;
6953;SDS011;3516;47.980;8.808;2023-05-07T16:51:46;0.90;;;0.90;;
6953;SDS011;3516;47.980;8.808;2023-05-07T16:54:12;2.80;;;1.08;;
6953;SDS011;3516;47.980;8.808;2023-05-07T16:56:39;0.90;;;0.90;;
6953;SDS011;3516;47.980;8.808;2023-05-07T16:59:07;1.20;;;1.10;;
6953;SDS011;3516;47.980;8.808;2023-05-07T17:01:34;0.90;;;0.90;;
6953;SDS011;3516;47.980;8.808;2023-05-07T17:04:01;1.00;;;1.00;;
6953;SDS011;3516;47.980;8.808;2023-05-07T17:06:28;0.90;;;0.90;;
6953;SDS011;3516;47.980;8.808;2023-05-07T17:08:57;1.17;;;1.17;;
6953;SDS011;3516;47.980;8.808;2023-05-07T17:11:23;1.10;;;1.00;;
6953;SDS011;3516;47.980;8.808;2023-05-07T17:13:54;3.40;;;0.90;;
6953;SDS011;3516;47.980;8.808;2023-05-07T17:16:21;0.80;;;0.80;;
6953;SDS011;3516;47.980;8.808;2023-05-07T17:18:48;0.70;;;0.70;;
6953;SDS011;3516;47.980;8.808;2023-05-07T17:21:15;0.90;;;0.90;;
6953;SDS011;3516;47.980;8.808;2023-05-07T17:23:42;0.80;;;0.80;;
6953;SDS011;3516;47.980;8.808;2023-05-07T17:26:13;1.00;;;1.00;;
6953;SDS011;3516;47.980;8.808;2023-05-07T17:28:40;0.80;;;0.80;;
6953;SDS011;3516;47.980;8.808;2023-05-07T17:31:07;0.70;;;0.70;;
6953;SDS011;3516;47.980;8.808;2023-05-07T17:33:33;0.98;;;0.98;;
6953;SDS011;3516;47.980;8.808;2023-05-07T17:36:00;1.05;;;1.05;;
6953;SDS011;3516;47.980;8.808;2023-05-07T17:38:28;0.90;;;0.90;;
6953;SDS011;3516;47.980;8.808;2023-05-07T17:40:55;1.17;;;1.17;;
6953;SDS011;3516;47.980;8.808;2023-05-07T17:43:24;0.93;;;0.93;;
6953;SDS011;3516;47.980;8.808;2023-05-07T17:45:50;1.00;;;1.00;;
6953;SDS011;3516;47.980;8.808;2023-05-07T17:48:17;0.90;;;0.90;;
6953;SDS011;3516;47.980;8.808;2023-05-07T17:50:44;0.77;;;0.77;;
6953;SDS011;3516;47.980;8.808;2023-05-07T17:53:11;0.80;;;0.80;;
6953;SDS011;3516;47.980;8.808;2023-05-07T17:55:40;0.80;;;0.80;;
6953;SDS011;3516;47.980;8.808;2023-05-07T17:58:07;1.05;;;1.05;;
6953;SDS011;3516;47.980;8.808;2023-05-07T18:00:36;0.80;;;0.80;;
6953;SDS011;3516;47.980;8.808;2023-05-07T18:03:03;0.60;;;0.60;;
6953;SDS011;3516;47.980;8.808;2023-05-07T18:05:30;0.80;;;0.80;;
6953;SDS011;3516;47.980;8.808;2023-05-07T18:07:57;1.00;;;1.00;;
6953;SDS011;3516;47.980;8.808;2023-05-07T18:10:23;0.82;;;0.82;;
6953;SDS011;3516;47.980;8.808;2023-05-07T18:12:50;0.98;;;0.98;;
6953;SDS011;3516;47.980;8.808;2023-05-07T18:15:17;0.80;;;0.80;;
6953;SDS011;3516;47.980;8.808;2023-05-07T18:17:45;1.10;;;1.10;;
6953;SDS011;3516;47.980;8.808;2023-05-07T18:20:12;0.93;;;0.93;;
6953;SDS011;3516;47.980;8.808;2023-05-07T18:22:39;0.70;;;0.70;;
6953;SDS011;3516;47.980;8.808;2023-05-07T18:25:06;0.90;;;0.90;;
6953;SDS011;3516;47.980;8.808;2023-05-07T18:27:33;0.85;;;0.85;;
6953;SDS011;3516;47.980;8.808;2023-05-07T18:30:00;0.65;;;0.65;;
6953;SDS011;3516;47.980;8.808;2023-05-07T18:32:27;0.85;;;0.85;;
6953;SDS011;3516;47.980;8.808;2023-05-07T18:34:55;0.93;;;0.93;;
6953;SDS011;3516;47.980;8.808;2023-05-07T18:37:22;0.80;;;0.80;;
6953;SDS011;3516;47.980;8.808;2023-05-07T18:39:49;0.80;;;0.80;;
6953;SDS011;3516;47.980;8.808;2023-05-07T18:42:15;0.80;;;0.80;;
6953;SDS011;3516;47.980;8.808;2023-05-07T18:44:42;0.98;;;0.98;;
6953;SDS011;3516;47.980;8.808;2023-05-07T18:47:09;0.95;;;0.95;;
6953;SDS011;3516;47.980;8.808;2023-05-07T18:49:37;0.80;;;0.80;;
6953;SDS011;3516;47.980;8.808;2023-05-07T18:52:05;0.90;;;0.90;;
6953;SDS011;3516;47.980;8.808;2023-05-07T18:54:32;1.00;;;1.00;;
6953;SDS011;3516;47.980;8.808;2023-05-07T18:56:59;1.00;;;1.00;;
6953;SDS011;3516;47.980;8.808;2023-05-07T18:59:26;0.98;;;0.98;;
6953;SDS011;3516;47.980;8.808;2023-05-07T19:01:52;1.00;;;1.00;;
6953;SDS011;3516;47.980;8.808;2023-05-07T19:04:19;0.95;;;0.95;;
6953;SDS011;3516;47.980;8.808;2023-05-07T19:06:46;0.85;;;0.85;;
6953;SDS011;3516;47.980;8.808;2023-05-07T19:09:14;0.90;;;0.90;;
6953;SDS011;3516;47.980;8.808;2023-05-07T19:11:41;0.90;;;0.90;;
6953;SDS011;3516;47.980;8.808;2023-05-07T19:14:07;0.90;;;0.90;;
6953;SDS011;3516;47.980;8.808;2023-05-07T19:16:35;1.00;;;1.00;;
6953;SDS011;3516;47.980;8.808;2023-05-07T19:19:01;1.10;;;1.10;;
6953;SDS011;3516;47.980;8.808;2023-05-07T19:21:29;1.00;;;1.00;;
6953;SDS011;3516;47.980;8.808;2023-05-07T19:23:56;0.65;;;0.65;;
6953;SDS011;3516;47.980;8.808;2023-05-07T19:26:24;1.00;;;1.00;;
6953;SDS011;3516;47.980;8.808;2023-05-07T19:28:51;0.93;;;0.93;;
6953;SDS011;3516;47.980;8.808;2023-05-07T19:31:18;0.93;;;0.93;;
6953;SDS011;3516;47.980;8.808;2023-05-07T19:33:45;1.00;;;1.00;;
6953;SDS011;3516;47.980;8.808;2023-05-07T19:36:12;1.10;;;1.10;;
6953;SDS011;3516;47.980;8.808;2023-05-07T19:38:40;0.80;;;0.80;;
6953;SDS011;3516;47.980;8.808;2023-05-07T19:41:07;1.00;;;1.00;;
6953;SDS011;3516;47.980;8.808;2023-05-07T19:43:35;0.88;;;0.88;;
6953;SDS011;3516;47.980;8.808;2023-05-07T19:46:03;1.00;;;1.00;;
6953;SDS011;3516;47.980;8.808;2023-05-07T19:48:30;0.93;;;0.93;;
6953;SDS011;3516;47.980;8.808;2023-05-07T19:50:57;1.20;;;1.20;;
6953;SDS011;3516;47.980;8.808;2023-05-07T19:53:24;1.02;;;1.02;;
6953;SDS011;3516;47.980;8.808;2023-05-07T19:55:58;1.00;;;1.00;;
6953;SDS011;3516;47.980;8.808;2023-05-07T19:58:27;0.95;;;0.95;;
6953;SDS011;3516;47.980;8.808;2023-05-07T20:00:55;1.35;;;1.35;;
6953;SDS011;3516;47.980;8.808;2023-05-07T20:03:21;1.33;;;0.95;;
6953;SDS011;3516;47.980;8.808;2023-05-07T20:05:48;1.10;;;1.10;;
6953;SDS011;3516;47.980;8.808;2023-05-07T20:08:15;0.98;;;0.98;;
6953;SDS011;3516;47.980;8.808;2023-05-07T20:10:42;1.10;;;1.10;;
6953;SDS011;3516;47.980;8.808;2023-05-07T20:13:09;1.40;;;1.40;;
6953;SDS011;3516;47.980;8.808;2023-05-07T20:15:36;1.17;;;1.10;;
6953;SDS011;3516;47.980;8.808;2023-05-07T20:18:04;1.10;;;1.10;;
6953;SDS011;3516;47.980;8.808;2023-05-07T20:20:31;0.90;;;0.90;;
6953;SDS011;3516;47.980;8.808;2023-05-07T20:22:58;1.17;;;1.17;;
6953;SDS011;3516;47.980;8.808;2023-05-07T20:25:25;1.00;;;1.00;;
6953;SDS011;3516;47.980;8.808;2023-05-07T20:27:52;0.82;;;0.82;;
6953;SDS011;3516;47.980;8.808;2023-05-07T20:30:19;1.35;;;1.35;;
6953;SDS011;3516;47.980;8.808;2023-05-07T20:32:48;1.10;;;1.10;;